金門航空站 - ATIS

METAR RCBS 011200Z 03016G29KT 350V050 9999 BKN025 BKN050 15/11 Q1022 NOSIG RMK A3020(V)=

站台狀態:Online
最後更新:2022-12-02 01:30:02